sensor_id;sensor_type;location;lat;lon;timestamp;P1;durP1;ratioP1;P2;durP2;ratioP2
7647;SDS011;3866;48.020;11.720;2023-09-18T00:00:41;3.93;;;3.53;;
7647;SDS011;3866;48.020;11.720;2023-09-18T00:03:09;3.90;;;3.33;;
7647;SDS011;3866;48.020;11.720;2023-09-18T00:05:36;3.63;;;3.33;;
7647;SDS011;3866;48.020;11.720;2023-09-18T00:08:03;3.53;;;3.17;;
7647;SDS011;3866;48.020;11.720;2023-09-18T00:10:30;4.43;;;3.47;;
7647;SDS011;3866;48.020;11.720;2023-09-18T00:12:58;3.80;;;3.50;;
7647;SDS011;3866;48.020;11.720;2023-09-18T00:15:26;5.13;;;3.30;;
7647;SDS011;3866;48.020;11.720;2023-09-18T00:17:53;3.77;;;3.43;;
7647;SDS011;3866;48.020;11.720;2023-09-18T00:20:20;3.83;;;3.50;;
7647;SDS011;3866;48.020;11.720;2023-09-18T00:22:51;3.60;;;3.30;;
7647;SDS011;3866;48.020;11.720;2023-09-18T00:25:18;3.60;;;3.30;;
7647;SDS011;3866;48.020;11.720;2023-09-18T00:27:45;4.43;;;3.77;;
7647;SDS011;3866;48.020;11.720;2023-09-18T00:30:13;4.00;;;3.60;;
7647;SDS011;3866;48.020;11.720;2023-09-18T00:32:40;3.90;;;3.30;;
7647;SDS011;3866;48.020;11.720;2023-09-18T00:35:08;4.00;;;3.57;;
7647;SDS011;3866;48.020;11.720;2023-09-18T00:37:34;4.63;;;3.43;;
7647;SDS011;3866;48.020;11.720;2023-09-18T00:40:02;4.20;;;3.13;;
7647;SDS011;3866;48.020;11.720;2023-09-18T00:42:30;4.23;;;3.70;;
7647;SDS011;3866;48.020;11.720;2023-09-18T00:44:57;4.63;;;2.63;;
7647;SDS011;3866;48.020;11.720;2023-09-18T00:47:25;3.70;;;3.30;;
7647;SDS011;3866;48.020;11.720;2023-09-18T00:49:52;3.90;;;3.27;;
7647;SDS011;3866;48.020;11.720;2023-09-18T00:52:20;5.40;;;3.13;;
7647;SDS011;3866;48.020;11.720;2023-09-18T00:54:49;3.40;;;3.07;;
7647;SDS011;3866;48.020;11.720;2023-09-18T00:57:17;3.60;;;3.03;;
7647;SDS011;3866;48.020;11.720;2023-09-18T00:59:45;5.00;;;3.03;;
7647;SDS011;3866;48.020;11.720;2023-09-18T01:02:12;5.40;;;3.50;;
7647;SDS011;3866;48.020;11.720;2023-09-18T01:04:40;5.30;;;4.10;;
7647;SDS011;3866;48.020;11.720;2023-09-18T01:07:09;5.87;;;3.87;;
7647;SDS011;3866;48.020;11.720;2023-09-18T01:09:36;3.50;;;3.07;;
7647;SDS011;3866;48.020;11.720;2023-09-18T01:12:04;3.53;;;2.90;;
7647;SDS011;3866;48.020;11.720;2023-09-18T01:14:37;3.43;;;2.90;;
7647;SDS011;3866;48.020;11.720;2023-09-18T01:17:09;3.93;;;3.17;;
7647;SDS011;3866;48.020;11.720;2023-09-18T01:19:39;4.37;;;3.40;;
7647;SDS011;3866;48.020;11.720;2023-09-18T01:22:09;3.83;;;3.37;;
7647;SDS011;3866;48.020;11.720;2023-09-18T01:24:38;4.10;;;3.13;;
7647;SDS011;3866;48.020;11.720;2023-09-18T01:27:07;3.90;;;3.03;;
7647;SDS011;3866;48.020;11.720;2023-09-18T01:29:36;3.67;;;2.87;;
7647;SDS011;3866;48.020;11.720;2023-09-18T01:32:03;5.83;;;3.70;;
7647;SDS011;3866;48.020;11.720;2023-09-18T01:34:31;5.90;;;3.10;;
7647;SDS011;3866;48.020;11.720;2023-09-18T01:37:01;3.37;;;3.03;;
7647;SDS011;3866;48.020;11.720;2023-09-18T01:39:29;3.77;;;2.83;;
7647;SDS011;3866;48.020;11.720;2023-09-18T01:41:59;2.80;;;2.60;;
7647;SDS011;3866;48.020;11.720;2023-09-18T01:44:27;3.50;;;3.00;;
7647;SDS011;3866;48.020;11.720;2023-09-18T01:46:55;3.13;;;2.80;;
7647;SDS011;3866;48.020;11.720;2023-09-18T01:49:27;4.53;;;2.73;;
7647;SDS011;3866;48.020;11.720;2023-09-18T01:51:55;5.67;;;3.00;;
7647;SDS011;3866;48.020;11.720;2023-09-18T01:54:21;5.70;;;2.80;;
7647;SDS011;3866;48.020;11.720;2023-09-18T01:56:49;3.13;;;2.93;;
7647;SDS011;3866;48.020;11.720;2023-09-18T01:59:17;3.17;;;2.50;;
7647;SDS011;3866;48.020;11.720;2023-09-18T02:01:44;6.97;;;3.27;;
7647;SDS011;3866;48.020;11.720;2023-09-18T02:04:11;6.17;;;3.20;;
7647;SDS011;3866;48.020;11.720;2023-09-18T02:06:38;3.17;;;2.70;;
7647;SDS011;3866;48.020;11.720;2023-09-18T02:09:05;3.20;;;2.87;;
7647;SDS011;3866;48.020;11.720;2023-09-18T02:11:33;3.07;;;2.83;;
7647;SDS011;3866;48.020;11.720;2023-09-18T02:14:01;4.43;;;2.50;;
7647;SDS011;3866;48.020;11.720;2023-09-18T02:16:30;3.10;;;2.80;;
7647;SDS011;3866;48.020;11.720;2023-09-18T02:18:58;2.33;;;2.23;;
7647;SDS011;3866;48.020;11.720;2023-09-18T02:21:25;3.47;;;2.60;;
7647;SDS011;3866;48.020;11.720;2023-09-18T02:23:52;4.63;;;2.80;;
7647;SDS011;3866;48.020;11.720;2023-09-18T02:26:19;4.13;;;3.00;;
7647;SDS011;3866;48.020;11.720;2023-09-18T02:28:47;2.83;;;2.20;;
7647;SDS011;3866;48.020;11.720;2023-09-18T02:31:14;3.80;;;2.63;;
7647;SDS011;3866;48.020;11.720;2023-09-18T02:33:43;4.40;;;3.03;;
7647;SDS011;3866;48.020;11.720;2023-09-18T02:36:09;3.57;;;2.50;;
7647;SDS011;3866;48.020;11.720;2023-09-18T02:38:36;4.27;;;2.77;;
7647;SDS011;3866;48.020;11.720;2023-09-18T02:41:03;4.13;;;2.30;;
7647;SDS011;3866;48.020;11.720;2023-09-18T02:43:30;5.50;;;2.67;;
7647;SDS011;3866;48.020;11.720;2023-09-18T02:45:57;2.77;;;2.13;;
7647;SDS011;3866;48.020;11.720;2023-09-18T02:48:24;3.90;;;2.83;;
7647;SDS011;3866;48.020;11.720;2023-09-18T02:50:52;3.63;;;3.33;;
7647;SDS011;3866;48.020;11.720;2023-09-18T02:53:19;3.53;;;2.50;;
7647;SDS011;3866;48.020;11.720;2023-09-18T02:55:48;3.47;;;3.03;;
7647;SDS011;3866;48.020;11.720;2023-09-18T02:58:16;4.53;;;2.77;;
7647;SDS011;3866;48.020;11.720;2023-09-18T03:00:44;3.47;;;2.70;;
7647;SDS011;3866;48.020;11.720;2023-09-18T03:03:12;2.97;;;2.30;;
7647;SDS011;3866;48.020;11.720;2023-09-18T03:05:40;5.20;;;2.47;;
7647;SDS011;3866;48.020;11.720;2023-09-18T03:08:08;3.70;;;2.97;;
7647;SDS011;3866;48.020;11.720;2023-09-18T03:10:37;2.97;;;2.70;;
7647;SDS011;3866;48.020;11.720;2023-09-18T03:13:05;3.00;;;2.70;;
7647;SDS011;3866;48.020;11.720;2023-09-18T03:15:33;3.53;;;2.30;;
7647;SDS011;3866;48.020;11.720;2023-09-18T03:18:00;2.90;;;2.27;;
7647;SDS011;3866;48.020;11.720;2023-09-18T03:20:28;3.43;;;2.67;;
7647;SDS011;3866;48.020;11.720;2023-09-18T03:22:56;3.60;;;2.13;;
7647;SDS011;3866;48.020;11.720;2023-09-18T03:25:26;2.47;;;2.27;;
7647;SDS011;3866;48.020;11.720;2023-09-18T03:27:54;5.50;;;3.37;;
7647;SDS011;3866;48.020;11.720;2023-09-18T03:30:23;3.23;;;2.50;;
7647;SDS011;3866;48.020;11.720;2023-09-18T03:32:50;2.87;;;2.53;;
7647;SDS011;3866;48.020;11.720;2023-09-18T03:35:18;4.77;;;2.77;;
7647;SDS011;3866;48.020;11.720;2023-09-18T03:37:45;4.67;;;2.63;;
7647;SDS011;3866;48.020;11.720;2023-09-18T03:40:13;6.33;;;2.73;;
7647;SDS011;3866;48.020;11.720;2023-09-18T03:42:41;5.73;;;2.70;;
7647;SDS011;3866;48.020;11.720;2023-09-18T03:45:08;6.53;;;2.63;;
7647;SDS011;3866;48.020;11.720;2023-09-18T03:47:36;3.17;;;2.40;;
7647;SDS011;3866;48.020;11.720;2023-09-18T03:50:04;3.70;;;2.43;;
7647;SDS011;3866;48.020;11.720;2023-09-18T03:52:32;5.13;;;2.57;;
7647;SDS011;3866;48.020;11.720;2023-09-18T03:54:59;3.97;;;2.83;;
7647;SDS011;3866;48.020;11.720;2023-09-18T03:57:26;4.90;;;2.27;;
7647;SDS011;3866;48.020;11.720;2023-09-18T03:59:54;4.87;;;2.73;;
7647;SDS011;3866;48.020;11.720;2023-09-18T04:02:21;4.17;;;2.60;;
7647;SDS011;3866;48.020;11.720;2023-09-18T04:04:50;3.53;;;3.00;;
7647;SDS011;3866;48.020;11.720;2023-09-18T04:07:17;3.43;;;2.80;;
7647;SDS011;3866;48.020;11.720;2023-09-18T04:09:44;3.17;;;2.33;;
7647;SDS011;3866;48.020;11.720;2023-09-18T04:12:11;4.90;;;2.50;;
7647;SDS011;3866;48.020;11.720;2023-09-18T04:14:39;4.40;;;2.80;;
7647;SDS011;3866;48.020;11.720;2023-09-18T04:17:08;6.27;;;2.40;;
7647;SDS011;3866;48.020;11.720;2023-09-18T04:19:35;6.63;;;3.00;;
7647;SDS011;3866;48.020;11.720;2023-09-18T04:22:01;4.50;;;2.60;;
7647;SDS011;3866;48.020;11.720;2023-09-18T04:24:29;6.77;;;2.90;;
7647;SDS011;3866;48.020;11.720;2023-09-18T04:26:56;4.13;;;2.80;;
7647;SDS011;3866;48.020;11.720;2023-09-18T04:29:22;4.27;;;2.70;;
7647;SDS011;3866;48.020;11.720;2023-09-18T04:31:49;6.00;;;2.60;;
7647;SDS011;3866;48.020;11.720;2023-09-18T04:34:19;5.17;;;2.60;;
7647;SDS011;3866;48.020;11.720;2023-09-18T04:36:46;5.93;;;4.13;;
7647;SDS011;3866;48.020;11.720;2023-09-18T04:39:13;3.23;;;2.50;;
7647;SDS011;3866;48.020;11.720;2023-09-18T04:41:40;5.13;;;2.70;;
7647;SDS011;3866;48.020;11.720;2023-09-18T04:44:07;3.47;;;3.17;;
7647;SDS011;3866;48.020;11.720;2023-09-18T04:46:34;5.20;;;2.40;;
7647;SDS011;3866;48.020;11.720;2023-09-18T04:49:01;7.83;;;2.53;;
7647;SDS011;3866;48.020;11.720;2023-09-18T04:51:31;6.80;;;2.70;;
7647;SDS011;3866;48.020;11.720;2023-09-18T04:53:58;10.70;;;2.53;;
7647;SDS011;3866;48.020;11.720;2023-09-18T04:56:25;4.63;;;2.50;;
7647;SDS011;3866;48.020;11.720;2023-09-18T04:58:52;6.47;;;2.80;;
7647;SDS011;3866;48.020;11.720;2023-09-18T05:01:19;3.90;;;2.80;;
7647;SDS011;3866;48.020;11.720;2023-09-18T05:03:46;5.43;;;2.40;;
7647;SDS011;3866;48.020;11.720;2023-09-18T05:06:13;4.40;;;2.63;;
7647;SDS011;3866;48.020;11.720;2023-09-18T05:08:43;9.30;;;3.50;;
7647;SDS011;3866;48.020;11.720;2023-09-18T05:11:10;7.20;;;2.63;;
7647;SDS011;3866;48.020;11.720;2023-09-18T05:13:37;6.90;;;2.67;;
7647;SDS011;3866;48.020;11.720;2023-09-18T05:16:04;13.43;;;3.90;;
7647;SDS011;3866;48.020;11.720;2023-09-18T05:18:31;10.97;;;2.93;;
7647;SDS011;3866;48.020;11.720;2023-09-18T05:20:57;8.53;;;3.10;;
7647;SDS011;3866;48.020;11.720;2023-09-18T05:23:24;12.47;;;3.37;;
7647;SDS011;3866;48.020;11.720;2023-09-18T05:25:53;12.60;;;3.30;;
7647;SDS011;3866;48.020;11.720;2023-09-18T05:28:20;12.27;;;3.50;;
7647;SDS011;3866;48.020;11.720;2023-09-18T05:30:47;12.23;;;3.53;;
7647;SDS011;3866;48.020;11.720;2023-09-18T05:33:14;13.77;;;2.97;;
7647;SDS011;3866;48.020;11.720;2023-09-18T05:35:41;8.17;;;3.17;;
7647;SDS011;3866;48.020;11.720;2023-09-18T05:38:09;14.83;;;3.47;;
7647;SDS011;3866;48.020;11.720;2023-09-18T05:40:38;11.77;;;3.13;;
7647;SDS011;3866;48.020;11.720;2023-09-18T05:43:06;8.67;;;3.27;;
7647;SDS011;3866;48.020;11.720;2023-09-18T05:45:35;7.07;;;2.80;;
7647;SDS011;3866;48.020;11.720;2023-09-18T05:48:02;16.63;;;3.80;;
7647;SDS011;3866;48.020;11.720;2023-09-18T05:50:29;12.30;;;3.03;;
7647;SDS011;3866;48.020;11.720;2023-09-18T05:52:57;7.50;;;3.67;;
7647;SDS011;3866;48.020;11.720;2023-09-18T05:55:28;7.57;;;3.13;;
7647;SDS011;3866;48.020;11.720;2023-09-18T05:57:55;9.77;;;2.90;;
7647;SDS011;3866;48.020;11.720;2023-09-18T06:00:24;3.13;;;2.40;;
7647;SDS011;3866;48.020;11.720;2023-09-18T06:02:51;9.93;;;3.20;;
7647;SDS011;3866;48.020;11.720;2023-09-18T06:05:18;7.20;;;2.97;;
7647;SDS011;3866;48.020;11.720;2023-09-18T06:07:47;7.03;;;2.67;;
7647;SDS011;3866;48.020;11.720;2023-09-18T06:10:14;8.37;;;2.60;;
7647;SDS011;3866;48.020;11.720;2023-09-18T06:12:42;4.77;;;2.30;;
7647;SDS011;3866;48.020;11.720;2023-09-18T06:15:10;4.27;;;1.93;;
7647;SDS011;3866;48.020;11.720;2023-09-18T06:17:39;13.40;;;2.50;;
7647;SDS011;3866;48.020;11.720;2023-09-18T06:20:07;8.00;;;2.40;;
7647;SDS011;3866;48.020;11.720;2023-09-18T06:22:36;8.47;;;2.40;;
7647;SDS011;3866;48.020;11.720;2023-09-18T06:25:04;8.27;;;2.30;;
7647;SDS011;3866;48.020;11.720;2023-09-18T06:27:33;13.03;;;2.57;;
7647;SDS011;3866;48.020;11.720;2023-09-18T06:30:01;7.97;;;3.97;;
7647;SDS011;3866;48.020;11.720;2023-09-18T06:32:28;3.90;;;1.80;;
7647;SDS011;3866;48.020;11.720;2023-09-18T06:34:57;6.80;;;2.03;;
7647;SDS011;3866;48.020;11.720;2023-09-18T06:37:23;4.97;;;2.10;;
7647;SDS011;3866;48.020;11.720;2023-09-18T06:39:51;5.20;;;1.70;;
7647;SDS011;3866;48.020;11.720;2023-09-18T06:42:17;3.40;;;1.63;;
7647;SDS011;3866;48.020;11.720;2023-09-18T06:44:44;8.23;;;2.10;;
7647;SDS011;3866;48.020;11.720;2023-09-18T06:47:11;4.53;;;1.93;;
7647;SDS011;3866;48.020;11.720;2023-09-18T06:49:39;6.10;;;1.83;;
7647;SDS011;3866;48.020;11.720;2023-09-18T06:52:09;6.33;;;1.83;;
7647;SDS011;3866;48.020;11.720;2023-09-18T06:54:38;7.97;;;2.30;;
7647;SDS011;3866;48.020;11.720;2023-09-18T06:57:04;7.17;;;2.40;;
7647;SDS011;3866;48.020;11.720;2023-09-18T06:59:31;7.47;;;2.60;;
7647;SDS011;3866;48.020;11.720;2023-09-18T07:01:59;10.23;;;2.50;;
7647;SDS011;3866;48.020;11.720;2023-09-18T07:04:27;12.80;;;3.07;;
7647;SDS011;3866;48.020;11.720;2023-09-18T07:06:54;10.07;;;2.70;;
7647;SDS011;3866;48.020;11.720;2023-09-18T07:09:23;8.30;;;3.23;;
7647;SDS011;3866;48.020;11.720;2023-09-18T07:11:51;8.43;;;2.60;;
7647;SDS011;3866;48.020;11.720;2023-09-18T07:14:18;9.57;;;2.87;;
7647;SDS011;3866;48.020;11.720;2023-09-18T07:16:45;7.88;;;2.47;;
7647;SDS011;3866;48.020;11.720;2023-09-18T07:19:12;7.55;;;2.80;;
7647;SDS011;3866;48.020;11.720;2023-09-18T07:21:42;4.38;;;2.47;;
7647;SDS011;3866;48.020;11.720;2023-09-18T07:24:10;6.03;;;2.75;;
7647;SDS011;3866;48.020;11.720;2023-09-18T07:26:45;6.70;;;2.93;;
7647;SDS011;3866;48.020;11.720;2023-09-18T07:29:12;11.50;;;3.47;;
7647;SDS011;3866;48.020;11.720;2023-09-18T07:31:40;7.23;;;2.90;;
7647;SDS011;3866;48.020;11.720;2023-09-18T07:34:07;9.17;;;2.53;;
7647;SDS011;3866;48.020;11.720;2023-09-18T07:36:34;4.87;;;3.00;;
7647;SDS011;3866;48.020;11.720;2023-09-18T07:39:01;7.57;;;2.55;;
7647;SDS011;3866;48.020;11.720;2023-09-18T07:41:29;7.28;;;2.42;;
7647;SDS011;3866;48.020;11.720;2023-09-18T07:43:58;9.83;;;3.20;;
7647;SDS011;3866;48.020;11.720;2023-09-18T07:46:25;10.75;;;3.30;;
7647;SDS011;3866;48.020;11.720;2023-09-18T07:48:52;6.03;;;2.95;;
7647;SDS011;3866;48.020;11.720;2023-09-18T07:51:19;7.65;;;2.53;;
7647;SDS011;3866;48.020;11.720;2023-09-18T07:53:45;6.00;;;2.60;;
7647;SDS011;3866;48.020;11.720;2023-09-18T07:56:13;5.70;;;2.60;;
7647;SDS011;3866;48.020;11.720;2023-09-18T07:58:40;11.18;;;2.88;;
7647;SDS011;3866;48.020;11.720;2023-09-18T08:01:08;9.07;;;2.75;;
7647;SDS011;3866;48.020;11.720;2023-09-18T08:03:35;14.43;;;2.80;;
7647;SDS011;3866;48.020;11.720;2023-09-18T08:06:02;8.57;;;2.97;;
7647;SDS011;3866;48.020;11.720;2023-09-18T08:08:30;7.60;;;2.83;;
7647;SDS011;3866;48.020;11.720;2023-09-18T08:11:00;9.10;;;2.93;;
7647;SDS011;3866;48.020;11.720;2023-09-18T08:13:33;11.87;;;3.07;;
7647;SDS011;3866;48.020;11.720;2023-09-18T08:16:00;9.40;;;2.50;;
7647;SDS011;3866;48.020;11.720;2023-09-18T08:18:28;11.87;;;2.83;;
7647;SDS011;3866;48.020;11.720;2023-09-18T08:20:55;7.83;;;2.87;;
7647;SDS011;3866;48.020;11.720;2023-09-18T08:23:23;6.00;;;2.37;;
7647;SDS011;3866;48.020;11.720;2023-09-18T08:25:50;10.17;;;2.63;;
7647;SDS011;3866;48.020;11.720;2023-09-18T08:28:20;7.60;;;2.43;;
7647;SDS011;3866;48.020;11.720;2023-09-18T08:30:47;6.23;;;2.90;;
7647;SDS011;3866;48.020;11.720;2023-09-18T08:33:14;9.23;;;2.93;;
7647;SDS011;3866;48.020;11.720;2023-09-18T08:35:42;9.50;;;3.00;;
7647;SDS011;3866;48.020;11.720;2023-09-18T08:38:11;7.43;;;2.80;;
7647;SDS011;3866;48.020;11.720;2023-09-18T08:40:39;5.97;;;2.80;;
7647;SDS011;3866;48.020;11.720;2023-09-18T08:43:07;6.50;;;2.63;;
7647;SDS011;3866;48.020;11.720;2023-09-18T08:45:38;6.93;;;2.63;;
7647;SDS011;3866;48.020;11.720;2023-09-18T08:48:11;9.43;;;2.50;;
7647;SDS011;3866;48.020;11.720;2023-09-18T08:50:38;6.13;;;2.80;;
7647;SDS011;3866;48.020;11.720;2023-09-18T08:53:07;7.10;;;2.70;;
7647;SDS011;3866;48.020;11.720;2023-09-18T08:55:34;6.93;;;2.60;;
7647;SDS011;3866;48.020;11.720;2023-09-18T08:58:01;6.23;;;2.80;;
7647;SDS011;3866;48.020;11.720;2023-09-18T09:00:28;6.77;;;4.23;;
7647;SDS011;3866;48.020;11.720;2023-09-18T09:02:55;5.37;;;2.70;;
7647;SDS011;3866;48.020;11.720;2023-09-18T09:05:22;9.00;;;3.80;;
7647;SDS011;3866;48.020;11.720;2023-09-18T09:07:50;5.97;;;2.73;;
7647;SDS011;3866;48.020;11.720;2023-09-18T09:10:18;8.27;;;3.03;;
7647;SDS011;3866;48.020;11.720;2023-09-18T09:12:52;9.07;;;3.20;;
7647;SDS011;3866;48.020;11.720;2023-09-18T09:15:20;5.57;;;2.90;;
7647;SDS011;3866;48.020;11.720;2023-09-18T09:17:49;4.03;;;2.50;;
7647;SDS011;3866;48.020;11.720;2023-09-18T09:20:17;8.00;;;3.17;;
7647;SDS011;3866;48.020;11.720;2023-09-18T09:22:44;5.83;;;2.80;;
7647;SDS011;3866;48.020;11.720;2023-09-18T09:25:23;5.43;;;3.10;;
7647;SDS011;3866;48.020;11.720;2023-09-18T09:27:56;4.90;;;2.53;;
7647;SDS011;3866;48.020;11.720;2023-09-18T09:30:25;5.37;;;2.83;;
7647;SDS011;3866;48.020;11.720;2023-09-18T09:32:53;5.70;;;2.47;;
7647;SDS011;3866;48.020;11.720;2023-09-18T09:35:22;4.83;;;2.33;;
7647;SDS011;3866;48.020;11.720;2023-09-18T09:37:52;8.63;;;3.00;;
7647;SDS011;3866;48.020;11.720;2023-09-18T09:40:20;8.30;;;2.83;;
7647;SDS011;3866;48.020;11.720;2023-09-18T09:42:53;5.47;;;2.93;;
7647;SDS011;3866;48.020;11.720;2023-09-18T09:45:26;7.10;;;2.33;;
7647;SDS011;3866;48.020;11.720;2023-09-18T09:47:55;5.77;;;2.70;;
7647;SDS011;3866;48.020;11.720;2023-09-18T09:50:23;7.00;;;2.50;;
7647;SDS011;3866;48.020;11.720;2023-09-18T09:52:52;8.90;;;3.20;;
7647;SDS011;3866;48.020;11.720;2023-09-18T09:55:21;8.37;;;3.53;;
7647;SDS011;3866;48.020;11.720;2023-09-18T09:57:51;7.00;;;2.80;;
7647;SDS011;3866;48.020;11.720;2023-09-18T10:00:22;6.83;;;3.03;;
7647;SDS011;3866;48.020;11.720;2023-09-18T10:02:59;7.07;;;3.00;;
7647;SDS011;3866;48.020;11.720;2023-09-18T10:05:29;7.70;;;3.27;;
7647;SDS011;3866;48.020;11.720;2023-09-18T10:07:58;7.10;;;3.10;;
7647;SDS011;3866;48.020;11.720;2023-09-18T10:10:31;7.87;;;3.07;;
7647;SDS011;3866;48.020;11.720;2023-09-18T10:13:00;10.37;;;2.73;;
7647;SDS011;3866;48.020;11.720;2023-09-18T10:15:33;7.93;;;2.77;;
7647;SDS011;3866;48.020;11.720;2023-09-18T10:18:04;8.77;;;2.80;;
7647;SDS011;3866;48.020;11.720;2023-09-18T10:20:37;5.03;;;2.60;;
7647;SDS011;3866;48.020;11.720;2023-09-18T10:23:11;8.90;;;3.10;;
7647;SDS011;3866;48.020;11.720;2023-09-18T10:25:47;9.00;;;2.87;;
7647;SDS011;3866;48.020;11.720;2023-09-18T10:28:16;8.30;;;2.93;;
7647;SDS011;3866;48.020;11.720;2023-09-18T10:30:43;9.00;;;2.67;;
7647;SDS011;3866;48.020;11.720;2023-09-18T10:33:11;10.63;;;2.80;;
7647;SDS011;3866;48.020;11.720;2023-09-18T10:35:38;4.70;;;2.70;;
7647;SDS011;3866;48.020;11.720;2023-09-18T10:38:07;9.23;;;2.77;;
7647;SDS011;3866;48.020;11.720;2023-09-18T10:40:36;12.43;;;3.57;;
7647;SDS011;3866;48.020;11.720;2023-09-18T10:43:05;8.10;;;3.00;;
7647;SDS011;3866;48.020;11.720;2023-09-18T10:45:35;10.60;;;2.90;;
7647;SDS011;3866;48.020;11.720;2023-09-18T10:48:03;8.00;;;3.37;;
7647;SDS011;3866;48.020;11.720;2023-09-18T10:50:33;9.23;;;3.30;;
7647;SDS011;3866;48.020;11.720;2023-09-18T10:53:02;5.20;;;2.60;;
7647;SDS011;3866;48.020;11.720;2023-09-18T10:55:29;10.33;;;3.47;;
7647;SDS011;3866;48.020;11.720;2023-09-18T10:57:59;5.50;;;3.10;;
7647;SDS011;3866;48.020;11.720;2023-09-18T11:00:29;7.20;;;3.07;;
7647;SDS011;3866;48.020;11.720;2023-09-18T11:03:11;7.43;;;2.70;;
7647;SDS011;3866;48.020;11.720;2023-09-18T11:05:42;8.40;;;3.00;;
7647;SDS011;3866;48.020;11.720;2023-09-18T11:08:27;9.53;;;3.10;;
7647;SDS011;3866;48.020;11.720;2023-09-18T11:10:55;7.23;;;2.60;;
7647;SDS011;3866;48.020;11.720;2023-09-18T11:13:29;7.57;;;2.77;;
7647;SDS011;3866;48.020;11.720;2023-09-18T11:16:01;12.63;;;3.07;;
7647;SDS011;3866;48.020;11.720;2023-09-18T11:18:39;9.33;;;2.80;;
7647;SDS011;3866;48.020;11.720;2023-09-18T11:21:09;8.87;;;3.23;;
7647;SDS011;3866;48.020;11.720;2023-09-18T11:23:37;6.67;;;2.73;;
7647;SDS011;3866;48.020;11.720;2023-09-18T11:26:08;6.93;;;3.10;;
7647;SDS011;3866;48.020;11.720;2023-09-18T11:28:36;9.67;;;2.50;;
7647;SDS011;3866;48.020;11.720;2023-09-18T11:31:05;10.73;;;2.93;;
7647;SDS011;3866;48.020;11.720;2023-09-18T11:33:36;10.00;;;3.27;;
7647;SDS011;3866;48.020;11.720;2023-09-18T11:36:04;7.57;;;2.43;;
7647;SDS011;3866;48.020;11.720;2023-09-18T11:38:33;10.87;;;2.97;;
7647;SDS011;3866;48.020;11.720;2023-09-18T11:43:47;7.30;;;3.03;;
7647;SDS011;3866;48.020;11.720;2023-09-18T11:46:18;8.20;;;3.57;;
7647;SDS011;3866;48.020;11.720;2023-09-18T11:48:47;10.67;;;3.67;;
7647;SDS011;3866;48.020;11.720;2023-09-18T11:51:20;9.23;;;3.37;;
7647;SDS011;3866;48.020;11.720;2023-09-18T11:53:49;9.20;;;3.37;;
7647;SDS011;3866;48.020;11.720;2023-09-18T11:56:20;8.77;;;3.30;;
7647;SDS011;3866;48.020;11.720;2023-09-18T11:58:47;6.60;;;3.20;;
7647;SDS011;3866;48.020;11.720;2023-09-18T12:01:15;4.97;;;3.40;;
7647;SDS011;3866;48.020;11.720;2023-09-18T12:03:45;6.10;;;2.57;;
7647;SDS011;3866;48.020;11.720;2023-09-18T12:06:13;7.27;;;2.40;;
7647;SDS011;3866;48.020;11.720;2023-09-18T12:08:41;5.13;;;2.17;;
7647;SDS011;3866;48.020;11.720;2023-09-18T12:11:08;5.93;;;2.13;;
7647;SDS011;3866;48.020;11.720;2023-09-18T12:13:37;4.40;;;1.50;;
7647;SDS011;3866;48.020;11.720;2023-09-18T12:16:05;3.90;;;2.03;;
7647;SDS011;3866;48.020;11.720;2023-09-18T12:18:34;3.07;;;1.50;;
7647;SDS011;3866;48.020;11.720;2023-09-18T12:21:05;5.20;;;1.47;;
7647;SDS011;3866;48.020;11.720;2023-09-18T12:23:39;2.10;;;0.80;;
7647;SDS011;3866;48.020;11.720;2023-09-18T12:26:07;3.13;;;0.90;;
7647;SDS011;3866;48.020;11.720;2023-09-18T12:28:38;3.77;;;1.03;;
7647;SDS011;3866;48.020;11.720;2023-09-18T12:31:05;1.60;;;0.77;;
7647;SDS011;3866;48.020;11.720;2023-09-18T12:33:36;3.77;;;0.87;;
7647;SDS011;3866;48.020;11.720;2023-09-18T12:36:06;2.90;;;0.70;;
7647;SDS011;3866;48.020;11.720;2023-09-18T12:38:34;2.67;;;0.90;;
7647;SDS011;3866;48.020;11.720;2023-09-18T12:41:02;1.27;;;0.50;;
7647;SDS011;3866;48.020;11.720;2023-09-18T12:43:33;3.23;;;1.00;;
7647;SDS011;3866;48.020;11.720;2023-09-18T12:46:02;4.23;;;1.17;;
7647;SDS011;3866;48.020;11.720;2023-09-18T12:48:30;2.33;;;0.83;;
7647;SDS011;3866;48.020;11.720;2023-09-18T12:51:02;2.03;;;0.70;;
7647;SDS011;3866;48.020;11.720;2023-09-18T12:53:31;2.37;;;0.53;;
7647;SDS011;3866;48.020;11.720;2023-09-18T12:56:07;1.93;;;0.67;;
7647;SDS011;3866;48.020;11.720;2023-09-18T12:58:36;1.30;;;0.70;;
7647;SDS011;3866;48.020;11.720;2023-09-18T13:01:04;1.37;;;0.60;;
7647;SDS011;3866;48.020;11.720;2023-09-18T13:03:41;1.37;;;0.47;;
7647;SDS011;3866;48.020;11.720;2023-09-18T13:06:09;1.50;;;0.67;;
7647;SDS011;3866;48.020;11.720;2023-09-18T13:08:38;1.63;;;0.50;;
7647;SDS011;3866;48.020;11.720;2023-09-18T13:11:05;2.83;;;0.57;;
7647;SDS011;3866;48.020;11.720;2023-09-18T13:13:32;1.70;;;0.73;;
7647;SDS011;3866;48.020;11.720;2023-09-18T13:15:59;1.37;;;0.63;;
7647;SDS011;3866;48.020;11.720;2023-09-18T13:18:30;2.47;;;0.57;;
7647;SDS011;3866;48.020;11.720;2023-09-18T13:20:57;3.10;;;0.67;;
7647;SDS011;3866;48.020;11.720;2023-09-18T13:23:27;1.13;;;0.47;;
7647;SDS011;3866;48.020;11.720;2023-09-18T13:25:59;2.03;;;0.60;;
7647;SDS011;3866;48.020;11.720;2023-09-18T13:28:28;2.47;;;0.90;;
7647;SDS011;3866;48.020;11.720;2023-09-18T13:30:56;2.93;;;0.70;;
7647;SDS011;3866;48.020;11.720;2023-09-18T13:33:24;2.50;;;0.70;;
7647;SDS011;3866;48.020;11.720;2023-09-18T13:35:52;2.53;;;0.67;;
7647;SDS011;3866;48.020;11.720;2023-09-18T13:38:21;1.53;;;0.80;;
7647;SDS011;3866;48.020;11.720;2023-09-18T13:40:48;1.03;;;0.70;;
7647;SDS011;3866;48.020;11.720;2023-09-18T13:43:17;3.03;;;0.63;;
7647;SDS011;3866;48.020;11.720;2023-09-18T13:45:46;0.77;;;0.50;;
7647;SDS011;3866;48.020;11.720;2023-09-18T13:48:16;2.27;;;0.60;;
7647;SDS011;3866;48.020;11.720;2023-09-18T13:50:44;1.10;;;0.50;;
7647;SDS011;3866;48.020;11.720;2023-09-18T13:53:11;2.43;;;0.70;;
7647;SDS011;3866;48.020;11.720;2023-09-18T13:55:39;2.77;;;0.87;;
7647;SDS011;3866;48.020;11.720;2023-09-18T13:58:06;1.03;;;0.67;;
7647;SDS011;3866;48.020;11.720;2023-09-18T14:00:34;2.43;;;0.60;;
7647;SDS011;3866;48.020;11.720;2023-09-18T14:03:01;1.17;;;0.67;;
7647;SDS011;3866;48.020;11.720;2023-09-18T14:05:29;1.57;;;0.60;;
7647;SDS011;3866;48.020;11.720;2023-09-18T14:07:58;2.17;;;1.00;;
7647;SDS011;3866;48.020;11.720;2023-09-18T14:10:26;2.30;;;0.60;;
7647;SDS011;3866;48.020;11.720;2023-09-18T14:12:53;1.43;;;0.57;;
7647;SDS011;3866;48.020;11.720;2023-09-18T14:15:20;0.43;;;0.40;;
7647;SDS011;3866;48.020;11.720;2023-09-18T14:17:49;1.50;;;0.73;;
7647;SDS011;3866;48.020;11.720;2023-09-18T14:20:19;3.90;;;0.70;;
7647;SDS011;3866;48.020;11.720;2023-09-18T14:22:46;1.30;;;0.60;;
7647;SDS011;3866;48.020;11.720;2023-09-18T14:25:15;3.80;;;0.60;;
7647;SDS011;3866;48.020;11.720;2023-09-18T14:27:42;2.07;;;0.70;;
7647;SDS011;3866;48.020;11.720;2023-09-18T14:30:09;1.93;;;0.50;;
7647;SDS011;3866;48.020;11.720;2023-09-18T14:32:38;1.57;;;0.70;;
7647;SDS011;3866;48.020;11.720;2023-09-18T14:35:07;1.27;;;0.70;;
7647;SDS011;3866;48.020;11.720;2023-09-18T14:37:35;0.43;;;0.43;;
7647;SDS011;3866;48.020;11.720;2023-09-18T14:40:02;1.47;;;0.40;;
7647;SDS011;3866;48.020;11.720;2023-09-18T14:42:29;1.30;;;0.50;;
7647;SDS011;3866;48.020;11.720;2023-09-18T14:44:59;0.50;;;0.40;;
7647;SDS011;3866;48.020;11.720;2023-09-18T14:47:26;2.60;;;0.40;;
7647;SDS011;3866;48.020;11.720;2023-09-18T14:49:53;0.77;;;0.43;;
7647;SDS011;3866;48.020;11.720;2023-09-18T14:52:21;1.17;;;0.33;;
7647;SDS011;3866;48.020;11.720;2023-09-18T14:54:50;1.30;;;0.50;;
7647;SDS011;3866;48.020;11.720;2023-09-18T14:57:17;0.87;;;0.40;;
7647;SDS011;3866;48.020;11.720;2023-09-18T14:59:44;1.07;;;0.50;;
7647;SDS011;3866;48.020;11.720;2023-09-18T15:02:12;0.50;;;0.50;;
7647;SDS011;3866;48.020;11.720;2023-09-18T15:04:41;1.40;;;0.30;;
7647;SDS011;3866;48.020;11.720;2023-09-18T15:07:10;1.57;;;0.40;;
7647;SDS011;3866;48.020;11.720;2023-09-18T15:09:39;0.57;;;0.40;;